createdAt,value
2023-02-19T00:00:09.888Z,8.80
2023-02-19T00:00:21.844Z,8.80
2023-02-19T00:00:33.544Z,8.80
2023-02-19T00:00:45.225Z,8.90
2023-02-19T00:00:56.956Z,8.80
2023-02-19T00:01:12.690Z,8.80
2023-02-19T00:01:25.869Z,8.80
2023-02-19T00:01:39.653Z,8.90
2023-02-19T00:01:51.546Z,8.80
2023-02-19T00:02:03.305Z,8.90
2023-02-19T00:02:15.087Z,8.90
2023-02-19T00:02:26.835Z,8.80
2023-02-19T00:02:38.757Z,8.90
2023-02-19T00:02:52.482Z,8.80
2023-02-19T00:03:04.236Z,8.80
2023-02-19T00:03:16.045Z,8.90
2023-02-19T00:03:27.894Z,8.90
2023-02-19T00:03:39.977Z,8.90
2023-02-19T00:03:53.408Z,8.90
2023-02-19T00:04:07.576Z,8.90
2023-02-19T00:04:21.832Z,8.80
2023-02-19T00:04:33.560Z,8.90
2023-02-19T00:04:45.306Z,8.90
2023-02-19T00:04:57.087Z,8.90
2023-02-19T00:05:08.894Z,8.90
2023-02-19T00:05:20.631Z,8.90
2023-02-19T00:05:32.369Z,8.90
2023-02-19T00:05:44.118Z,8.90
2023-02-19T00:05:55.924Z,8.90
2023-02-19T00:06:09.499Z,8.90
2023-02-19T00:06:21.780Z,8.90
2023-02-19T00:06:34.008Z,8.90
2023-02-19T00:06:46.264Z,8.90
2023-02-19T00:06:58.067Z,8.90
2023-02-19T00:07:09.792Z,8.90
2023-02-19T00:07:21.533Z,8.90
2023-02-19T00:07:33.225Z,8.90
2023-02-19T00:07:45.039Z,8.90
2023-02-19T00:07:56.781Z,8.90
2023-02-19T00:08:08.570Z,8.90
2023-02-19T00:08:20.385Z,8.90
2023-02-19T00:08:32.784Z,8.90
2023-02-19T00:08:44.553Z,8.90
2023-02-19T00:08:56.596Z,8.90
2023-02-19T00:09:10.171Z,8.90
2023-02-19T00:09:21.983Z,8.80
2023-02-19T00:09:33.930Z,8.90
2023-02-19T00:09:45.665Z,8.90
2023-02-19T00:09:57.396Z,8.90
2023-02-19T00:10:09.235Z,8.90
2023-02-19T00:10:20.948Z,8.90
2023-02-19T00:10:32.743Z,8.90
2023-02-19T00:10:44.496Z,8.90
2023-02-19T00:11:00.849Z,8.90
2023-02-19T00:11:17.110Z,8.90
2023-02-19T00:11:30.650Z,9.00
2023-02-19T00:11:42.511Z,9.00
2023-02-19T00:11:54.282Z,9.00
2023-02-19T00:12:06.288Z,9.00
2023-02-19T00:12:17.984Z,9.00
2023-02-19T00:12:29.691Z,9.00
2023-02-19T00:12:41.427Z,9.00
2023-02-19T00:12:53.194Z,9.00
2023-02-19T00:13:04.962Z,9.00
2023-02-19T00:13:16.665Z,9.00
2023-02-19T00:13:28.442Z,9.00
2023-02-19T00:13:44.727Z,9.00
2023-02-19T00:13:57.571Z,9.10
2023-02-19T00:14:10.607Z,9.00
2023-02-19T00:14:22.507Z,9.00
2023-02-19T00:14:34.348Z,9.00
2023-02-19T00:14:46.099Z,9.00
2023-02-19T00:14:58.531Z,9.00
2023-02-19T00:15:10.505Z,9.00
2023-02-19T00:15:22.293Z,9.00
2023-02-19T00:15:34.135Z,9.00
2023-02-19T00:15:45.979Z,9.00
2023-02-19T00:15:57.994Z,9.10
2023-02-19T00:16:20.488Z,9.00
2023-02-19T00:16:34.110Z,9.00
2023-02-19T00:16:45.986Z,9.10
2023-02-19T00:16:57.751Z,9.00
2023-02-19T00:17:09.549Z,9.00
2023-02-19T00:17:21.326Z,9.00
2023-02-19T00:17:33.083Z,9.00
2023-02-19T00:17:44.912Z,9.00
2023-02-19T00:17:56.706Z,9.00
2023-02-19T00:18:08.481Z,9.00
2023-02-19T00:18:20.216Z,9.00
2023-02-19T00:18:31.985Z,9.00
2023-02-19T00:18:43.931Z,9.00
2023-02-19T00:18:56.345Z,9.10
2023-02-19T00:19:09.175Z,9.00
2023-02-19T00:19:21.085Z,9.00
2023-02-19T00:19:32.973Z,9.00
2023-02-19T00:19:44.694Z,9.00
2023-02-19T00:19:56.497Z,9.00
2023-02-19T00:20:08.733Z,9.00
2023-02-19T00:20:20.459Z,9.00
2023-02-19T00:20:32.193Z,9.00
2023-02-19T00:20:43.931Z,9.00
2023-02-19T00:20:56.523Z,9.00
2023-02-19T00:21:08.787Z,9.00
2023-02-19T00:21:20.919Z,9.00
2023-02-19T00:21:32.798Z,9.00
2023-02-19T00:21:44.592Z,9.00
2023-02-19T00:21:56.451Z,9.00
2023-02-19T00:22:08.226Z,9.00
2023-02-19T00:22:19.946Z,9.00
2023-02-19T00:22:31.700Z,9.00
2023-02-19T00:22:43.468Z,9.00
2023-02-19T00:22:55.235Z,9.00
2023-02-19T00:23:06.961Z,9.00
2023-02-19T00:23:18.757Z,9.00
2023-02-19T00:23:30.872Z,9.00
2023-02-19T00:23:42.599Z,9.00
2023-02-19T00:23:58.556Z,9.00
2023-02-19T00:24:10.914Z,9.00
2023-02-19T00:24:22.699Z,9.00
2023-02-19T00:24:34.391Z,9.00
2023-02-19T00:24:48.375Z,9.00
2023-02-19T00:25:00.902Z,9.00
2023-02-19T00:25:12.650Z,9.00
2023-02-19T00:25:24.418Z,9.00
2023-02-19T00:25:38.980Z,9.00
2023-02-19T00:25:50.705Z,9.00
2023-02-19T00:26:18.175Z,9.00
2023-02-19T00:26:30.535Z,9.00
2023-02-19T00:26:42.637Z,9.00
2023-02-19T00:26:54.418Z,9.00
2023-02-19T00:27:06.104Z,9.00
2023-02-19T00:27:17.839Z,9.00
2023-02-19T00:27:29.543Z,9.00
2023-02-19T00:27:41.240Z,9.00
2023-02-19T00:27:52.981Z,9.00
2023-02-19T00:28:04.896Z,9.00
2023-02-19T00:28:16.621Z,9.00
2023-02-19T00:28:28.344Z,9.00
2023-02-19T00:28:40.138Z,9.00
2023-02-19T00:28:52.362Z,9.00
2023-02-19T00:29:04.130Z,9.00
2023-02-19T00:29:18.070Z,9.00
2023-02-19T00:29:29.931Z,9.00
2023-02-19T00:29:41.676Z,9.10
2023-02-19T00:29:54.077Z,9.00
2023-02-19T00:30:06.229Z,9.00
2023-02-19T00:30:18.104Z,9.10
2023-02-19T00:30:29.988Z,9.00
2023-02-19T00:30:41.786Z,9.00
2023-02-19T00:30:53.565Z,9.00
2023-02-19T00:31:15.536Z,9.00
2023-02-19T00:31:33.221Z,9.10
2023-02-19T00:31:45.532Z,9.00
2023-02-19T00:31:57.487Z,9.00
2023-02-19T00:32:09.427Z,9.00
2023-02-19T00:32:21.184Z,9.00
2023-02-19T00:32:32.993Z,9.00
2023-02-19T00:32:49.728Z,9.00
2023-02-19T00:33:01.559Z,9.00
2023-02-19T00:33:13.404Z,9.00
2023-02-19T00:33:25.183Z,9.00
2023-02-19T00:33:36.878Z,9.00
2023-02-19T00:33:49.175Z,9.00
2023-02-19T00:34:03.888Z,9.10
2023-02-19T00:34:15.766Z,9.00
2023-02-19T00:34:27.548Z,9.10
2023-02-19T00:34:39.384Z,9.10
2023-02-19T00:34:51.153Z,9.00
2023-02-19T00:35:04.299Z,9.00
2023-02-19T00:35:16.140Z,9.00
2023-02-19T00:35:27.939Z,9.00
2023-02-19T00:35:39.728Z,9.00
2023-02-19T00:35:51.523Z,9.00
2023-02-19T00:36:03.685Z,9.00
2023-02-19T00:36:15.645Z,9.00
2023-02-19T00:36:27.697Z,9.00
2023-02-19T00:36:40.209Z,9.00
2023-02-19T00:36:51.987Z,9.00
2023-02-19T00:37:03.768Z,9.00
2023-02-19T00:37:15.609Z,9.00
2023-02-19T00:37:27.432Z,9.00
2023-02-19T00:37:39.219Z,9.00
2023-02-19T00:37:50.973Z,9.00
2023-02-19T00:38:02.870Z,9.00
2023-02-19T00:38:14.651Z,9.00
2023-02-19T00:38:26.425Z,9.00
2023-02-19T00:38:38.756Z,9.00
2023-02-19T00:38:50.512Z,9.00
2023-02-19T00:39:02.438Z,9.00
2023-02-19T00:39:15.939Z,9.00
2023-02-19T00:39:27.890Z,9.00
2023-02-19T00:39:39.677Z,9.00
2023-02-19T00:39:51.456Z,9.00
2023-02-19T00:40:03.242Z,9.00
2023-02-19T00:40:15.016Z,9.00
2023-02-19T00:40:26.854Z,9.00
2023-02-19T00:40:39.029Z,9.00
2023-02-19T00:40:50.827Z,9.00
2023-02-19T00:41:18.902Z,9.00
2023-02-19T00:41:30.653Z,9.00
2023-02-19T00:41:42.454Z,9.00
2023-02-19T00:41:54.218Z,9.00
2023-02-19T00:42:05.975Z,9.00
2023-02-19T00:42:17.747Z,9.00
2023-02-19T00:42:29.529Z,9.00
2023-02-19T00:42:41.287Z,9.00
2023-02-19T00:42:53.295Z,9.00
2023-02-19T00:43:05.046Z,9.00
2023-02-19T00:43:16.839Z,9.00
2023-02-19T00:43:28.630Z,9.00
2023-02-19T00:43:40.328Z,9.00
2023-02-19T00:43:55.796Z,9.00
2023-02-19T00:44:08.093Z,9.10
2023-02-19T00:44:19.927Z,9.00
2023-02-19T00:44:31.696Z,9.00
2023-02-19T00:44:43.471Z,9.10
2023-02-19T00:44:55.287Z,9.00
2023-02-19T00:45:07.508Z,9.10
2023-02-19T00:45:19.288Z,9.00
2023-02-19T00:45:31.023Z,9.00
2023-02-19T00:45:42.812Z,9.10
2023-02-19T00:45:54.531Z,9.10
2023-02-19T00:46:06.304Z,9.10
2023-02-19T00:46:22.518Z,9.10
2023-02-19T00:46:38.753Z,9.10
2023-02-19T00:46:50.550Z,9.10
2023-02-19T00:47:02.317Z,9.10
2023-02-19T00:47:14.037Z,9.10
2023-02-19T00:47:25.799Z,9.10
2023-02-19T00:47:37.587Z,9.10
2023-02-19T00:47:49.306Z,9.10
2023-02-19T00:48:01.064Z,9.20
2023-02-19T00:48:12.825Z,9.20
2023-02-19T00:48:24.569Z,9.20
2023-02-19T00:48:36.453Z,9.20
2023-02-19T00:48:48.414Z,9.20
2023-02-19T00:49:00.420Z,9.20
2023-02-19T00:49:21.008Z,9.20
2023-02-19T00:49:32.760Z,9.20
2023-02-19T00:49:44.573Z,9.20
2023-02-19T00:49:56.360Z,9.20
2023-02-19T00:50:08.406Z,9.20
2023-02-19T00:50:20.164Z,9.20
2023-02-19T00:50:31.887Z,9.20
2023-02-19T00:50:43.736Z,9.20
2023-02-19T00:50:55.448Z,9.20
2023-02-19T00:51:07.145Z,9.20
2023-02-19T00:51:19.335Z,9.20
2023-02-19T00:51:32.778Z,9.20
2023-02-19T00:51:44.518Z,9.20
2023-02-19T00:51:56.232Z,9.20
2023-02-19T00:52:08.006Z,9.20
2023-02-19T00:52:19.785Z,9.20
2023-02-19T00:52:31.674Z,9.20
2023-02-19T00:52:43.327Z,9.20
2023-02-19T00:52:55.072Z,9.20
2023-02-19T00:53:06.817Z,9.20
2023-02-19T00:53:18.758Z,9.20
2023-02-19T00:53:30.422Z,9.20
2023-02-19T00:53:42.276Z,9.20
2023-02-19T00:53:54.210Z,9.20
2023-02-19T00:54:06.136Z,9.20
2023-02-19T00:54:18.104Z,9.20
2023-02-19T00:54:31.504Z,9.20
2023-02-19T00:54:43.273Z,9.20
2023-02-19T00:54:55.057Z,9.20
2023-02-19T00:55:06.893Z,9.20
2023-02-19T00:55:18.660Z,9.20
2023-02-19T00:55:30.482Z,9.20
2023-02-19T00:55:42.187Z,9.20
2023-02-19T00:55:53.874Z,9.20
2023-02-19T00:56:06.508Z,9.20
2023-02-19T00:56:18.431Z,9.20
2023-02-19T00:56:30.237Z,9.20
2023-02-19T00:56:42.007Z,9.20
2023-02-19T00:56:53.724Z,9.20
2023-02-19T00:57:06.345Z,9.20
2023-02-19T00:57:18.071Z,9.20
2023-02-19T00:57:29.897Z,9.20
2023-02-19T00:57:41.612Z,9.20
2023-02-19T00:57:53.384Z,9.20
2023-02-19T00:58:05.195Z,9.20
2023-02-19T00:58:16.934Z,9.20
2023-02-19T00:58:28.759Z,9.20
2023-02-19T00:58:40.534Z,9.20
2023-02-19T00:58:52.345Z,9.20
2023-02-19T00:59:04.539Z,9.20
2023-02-19T00:59:16.353Z,9.20
2023-02-19T00:59:28.081Z,9.20
2023-02-19T00:59:39.866Z,9.20
2023-02-19T00:59:51.586Z,9.20
2023-02-19T01:00:04.114Z,9.20
2023-02-19T01:00:15.927Z,9.20
2023-02-19T01:00:27.655Z,9.20
2023-02-19T01:00:39.486Z,9.20
2023-02-19T01:00:51.187Z,9.20
2023-02-19T01:01:03.123Z,9.20
2023-02-19T01:01:15.009Z,9.20
2023-02-19T01:01:26.893Z,9.20
2023-02-19T01:01:38.890Z,9.20
2023-02-19T01:01:50.834Z,9.20
2023-02-19T01:02:03.097Z,9.20
2023-02-19T01:02:14.991Z,9.20
2023-02-19T01:02:26.866Z,9.20
2023-02-19T01:02:38.632Z,9.20
2023-02-19T01:02:50.378Z,9.20
2023-02-19T01:03:02.121Z,9.10
2023-02-19T01:03:13.869Z,9.20
2023-02-19T01:03:25.692Z,9.10
2023-02-19T01:03:37.711Z,9.10
2023-02-19T01:03:49.499Z,9.10
2023-02-19T01:04:01.281Z,9.10
2023-02-19T01:04:13.104Z,9.10
2023-02-19T01:04:24.912Z,9.10
2023-02-19T01:04:36.769Z,9.10
2023-02-19T01:04:48.602Z,9.10
2023-02-19T01:05:00.386Z,9.10
2023-02-19T01:05:12.126Z,9.10
2023-02-19T01:05:23.855Z,9.10
2023-02-19T01:05:35.659Z,9.10
2023-02-19T01:05:47.409Z,9.10
2023-02-19T01:05:59.136Z,9.10
2023-02-19T01:06:11.213Z,9.10
2023-02-19T01:06:23.031Z,9.10
2023-02-19T01:06:35.582Z,9.10
2023-02-19T01:06:48.857Z,9.10
2023-02-19T01:07:00.655Z,9.10
2023-02-19T01:07:12.453Z,9.10
2023-02-19T01:07:24.393Z,9.10
2023-02-19T01:07:37.217Z,9.10
2023-02-19T01:07:48.916Z,9.10
2023-02-19T01:08:00.599Z,9.10
2023-02-19T01:08:12.338Z,9.10
2023-02-19T01:08:24.144Z,9.10
2023-02-19T01:08:36.073Z,9.10
2023-02-19T01:08:47.847Z,9.10
2023-02-19T01:08:59.646Z,9.10
2023-02-19T01:09:11.437Z,9.10
2023-02-19T01:09:23.275Z,9.10
2023-02-19T01:09:35.015Z,9.10
2023-02-19T01:09:46.700Z,9.10
2023-02-19T01:09:58.484Z,9.00
2023-02-19T01:10:10.278Z,9.00
2023-02-19T01:10:22.096Z,9.00
2023-02-19T01:10:33.854Z,9.10
2023-02-19T01:10:45.597Z,9.00
2023-02-19T01:10:57.854Z,9.00
2023-02-19T01:11:10.258Z,9.00
2023-02-19T01:11:22.216Z,9.10
2023-02-19T01:11:34.202Z,9.10
2023-02-19T01:11:45.926Z,9.00
2023-02-19T01:11:57.704Z,9.10
2023-02-19T01:12:09.457Z,9.10
2023-02-19T01:12:21.239Z,9.10
2023-02-19T01:12:33.011Z,9.10
2023-02-19T01:12:44.760Z,9.10
2023-02-19T01:12:56.474Z,9.10
2023-02-19T01:13:08.265Z,9.10
2023-02-19T01:13:19.988Z,9.10
2023-02-19T01:13:31.794Z,9.10
2023-02-19T01:13:43.699Z,9.10
2023-02-19T01:13:59.298Z,9.10
2023-02-19T01:14:11.041Z,9.10
2023-02-19T01:14:22.793Z,9.10
2023-02-19T01:14:34.600Z,9.10
2023-02-19T01:14:46.329Z,9.10
2023-02-19T01:14:58.439Z,9.10
2023-02-19T01:15:10.240Z,9.10
2023-02-19T01:15:21.951Z,9.10
2023-02-19T01:15:34.113Z,9.10
2023-02-19T01:15:45.908Z,9.10
2023-02-19T01:16:05.573Z,9.10
2023-02-19T01:16:22.219Z,9.10
2023-02-19T01:16:34.074Z,9.10
2023-02-19T01:16:45.889Z,9.10
2023-02-19T01:16:57.669Z,9.10
2023-02-19T01:17:09.423Z,9.10
2023-02-19T01:17:21.520Z,9.10
2023-02-19T01:17:35.116Z,9.10
2023-02-19T01:17:46.854Z,9.10
2023-02-19T01:17:58.601Z,9.10
2023-02-19T01:18:10.885Z,9.10
2023-02-19T01:18:22.722Z,9.10
2023-02-19T01:18:34.869Z,9.10
2023-02-19T01:18:47.677Z,9.10
2023-02-19T01:18:59.423Z,9.10
2023-02-19T01:19:11.890Z,9.10
2023-02-19T01:19:23.654Z,9.00
2023-02-19T01:19:35.430Z,9.00
2023-02-19T01:19:47.217Z,9.00
2023-02-19T01:19:58.982Z,9.00
2023-02-19T01:20:10.879Z,9.00
2023-02-19T01:20:22.581Z,9.00
2023-02-19T01:20:34.335Z,9.00
2023-02-19T01:20:46.140Z,9.00
2023-02-19T01:20:57.886Z,9.00
2023-02-19T01:21:18.597Z,9.00
2023-02-19T01:21:30.711Z,9.00
2023-02-19T01:21:42.431Z,9.00
2023-02-19T01:21:54.182Z,9.10
2023-02-19T01:22:05.954Z,9.10
2023-02-19T01:22:17.733Z,9.10
2023-02-19T01:22:29.459Z,9.10
2023-02-19T01:22:41.212Z,9.10
2023-02-19T01:22:53.193Z,9.10
2023-02-19T01:23:04.993Z,9.10
2023-02-19T01:23:16.734Z,9.10
2023-02-19T01:23:28.414Z,9.10
2023-02-19T01:23:40.398Z,9.10
2023-02-19T01:23:52.676Z,9.10
2023-02-19T01:24:04.506Z,9.10
2023-02-19T01:24:16.748Z,9.10
2023-02-19T01:24:28.503Z,9.10
2023-02-19T01:24:40.321Z,9.10
2023-02-19T01:24:52.086Z,9.10
2023-02-19T01:25:03.929Z,9.10
2023-02-19T01:25:15.701Z,9.10
2023-02-19T01:25:27.536Z,9.10
2023-02-19T01:25:42.430Z,9.10
2023-02-19T01:25:54.167Z,9.10
2023-02-19T01:26:07.234Z,9.10
2023-02-19T01:26:23.539Z,9.10
2023-02-19T01:26:35.269Z,9.10
2023-02-19T01:26:46.968Z,9.10
2023-02-19T01:26:58.693Z,9.10
2023-02-19T01:27:10.427Z,9.10
2023-02-19T01:27:22.336Z,9.10
2023-02-19T01:27:34.057Z,9.10
2023-02-19T01:27:46.045Z,9.10
2023-02-19T01:27:57.849Z,9.10
2023-02-19T01:28:10.897Z,9.10
2023-02-19T01:28:23.346Z,9.10
2023-02-19T01:28:35.514Z,9.10
2023-02-19T01:28:48.330Z,9.10
2023-02-19T01:29:00.544Z,9.10
2023-02-19T01:29:12.242Z,9.20
2023-02-19T01:29:24.024Z,9.20
2023-02-19T01:29:35.982Z,9.20
2023-02-19T01:29:47.865Z,9.20
2023-02-19T01:29:59.575Z,9.20
2023-02-19T01:30:11.680Z,9.20
2023-02-19T01:30:23.453Z,9.20
2023-02-19T01:30:37.103Z,9.20
2023-02-19T01:30:48.808Z,9.20
2023-02-19T01:31:02.553Z,9.20
2023-02-19T01:31:19.503Z,9.20
2023-02-19T01:31:31.417Z,9.20
2023-02-19T01:31:43.398Z,9.20
2023-02-19T01:31:55.319Z,9.20
2023-02-19T01:32:07.170Z,9.20
2023-02-19T01:32:19.002Z,9.20
2023-02-19T01:32:30.980Z,9.20
2023-02-19T01:32:42.732Z,9.20
2023-02-19T01:32:54.499Z,9.20
2023-02-19T01:33:07.541Z,9.20
2023-02-19T01:33:19.243Z,9.20
2023-02-19T01:33:31.170Z,9.20
2023-02-19T01:33:51.060Z,9.20
2023-02-19T01:34:03.318Z,9.20
2023-02-19T01:34:15.103Z,9.20
2023-02-19T01:34:30.078Z,9.20
2023-02-19T01:34:41.978Z,9.30
2023-02-19T01:34:53.715Z,9.20
2023-02-19T01:35:05.765Z,9.20
2023-02-19T01:35:17.656Z,9.20
2023-02-19T01:35:29.429Z,9.30
2023-02-19T01:35:41.173Z,9.30
2023-02-19T01:35:52.866Z,9.30
2023-02-19T01:36:05.018Z,9.30
2023-02-19T01:36:16.828Z,9.30
2023-02-19T01:36:29.013Z,9.30
2023-02-19T01:36:40.821Z,9.30
2023-02-19T01:36:52.568Z,9.20
2023-02-19T01:37:04.289Z,9.30
2023-02-19T01:37:15.966Z,9.30
2023-02-19T01:37:27.772Z,9.30
2023-02-19T01:37:39.513Z,9.30
2023-02-19T01:37:51.283Z,9.30
2023-02-19T01:38:03.148Z,9.20
2023-02-19T01:38:14.867Z,9.30
2023-02-19T01:38:26.622Z,9.30
2023-02-19T01:38:38.341Z,9.30
2023-02-19T01:38:50.012Z,9.30
2023-02-19T01:39:04.947Z,9.30
2023-02-19T01:39:16.729Z,9.30
2023-02-19T01:39:28.548Z,9.30
2023-02-19T01:39:40.322Z,9.30
2023-02-19T01:39:52.064Z,9.30
2023-02-19T01:40:03.942Z,9.30
2023-02-19T01:40:15.711Z,9.30
2023-02-19T01:40:27.526Z,9.30
2023-02-19T01:40:39.301Z,9.30
2023-02-19T01:40:58.414Z,9.30
2023-02-19T01:41:12.041Z,9.30
2023-02-19T01:41:25.283Z,9.30
2023-02-19T01:41:39.431Z,9.20
2023-02-19T01:41:51.178Z,9.30
2023-02-19T01:42:03.153Z,9.30
2023-02-19T01:42:16.508Z,9.30
2023-02-19T01:42:28.240Z,9.30
2023-02-19T01:42:43.855Z,9.30
2023-02-19T01:42:55.692Z,9.30
2023-02-19T01:43:14.941Z,9.30
2023-02-19T01:43:26.742Z,9.30
2023-02-19T01:44:13.888Z,9.30
2023-02-19T01:44:28.414Z,9.30
2023-02-19T01:44:40.188Z,9.30
2023-02-19T01:44:54.641Z,9.30
2023-02-19T01:45:25.797Z,9.30
2023-02-19T01:45:39.613Z,9.30
2023-02-19T01:45:51.665Z,9.30
2023-02-19T01:46:03.518Z,9.30
2023-02-19T01:46:15.224Z,9.30
2023-02-19T01:46:34.296Z,9.30
2023-02-19T01:46:46.448Z,9.30
2023-02-19T01:46:58.766Z,9.30
2023-02-19T01:47:10.687Z,9.30
2023-02-19T01:47:22.533Z,9.30
2023-02-19T01:47:34.208Z,9.30
2023-02-19T01:47:47.648Z,9.20
2023-02-19T01:48:18.947Z,9.30
2023-02-19T01:48:38.357Z,9.30
2023-02-19T01:48:50.062Z,9.30
2023-02-19T01:49:08.958Z,9.30
2023-02-19T01:49:29.280Z,9.30
2023-02-19T01:49:48.539Z,9.30
2023-02-19T01:50:00.204Z,9.30
2023-02-19T01:50:11.878Z,9.30
2023-02-19T01:50:24.322Z,9.30
2023-02-19T01:50:50.391Z,9.30
2023-02-19T01:51:07.356Z,9.30
2023-02-19T01:51:20.112Z,9.30
2023-02-19T01:51:31.847Z,9.30
2023-02-19T01:51:48.620Z,9.30
2023-02-19T01:52:14.215Z,9.30
2023-02-19T01:52:31.834Z,9.30
2023-02-19T01:52:43.529Z,9.30
2023-02-19T01:52:55.534Z,9.30
2023-02-19T01:53:07.699Z,9.30
2023-02-19T01:53:23.017Z,9.40
2023-02-19T01:53:37.886Z,9.40
2023-02-19T01:53:55.768Z,9.40
2023-02-19T01:54:08.274Z,9.40
2023-02-19T01:54:20.523Z,9.40
2023-02-19T01:54:33.602Z,9.40
2023-02-19T01:54:45.349Z,9.40
2023-02-19T01:54:57.188Z,9.40
2023-02-19T01:55:10.825Z,9.40
2023-02-19T01:55:22.775Z,9.40
2023-02-19T01:55:34.943Z,9.40
2023-02-19T01:55:47.210Z,9.40
2023-02-19T01:55:58.991Z,9.40
2023-02-19T01:56:10.808Z,9.40
2023-02-19T01:56:22.602Z,9.40
2023-02-19T01:56:34.634Z,9.40
2023-02-19T01:56:46.381Z,9.40
2023-02-19T01:56:58.242Z,9.40
2023-02-19T01:57:17.100Z,9.40
2023-02-19T01:57:30.881Z,9.40
2023-02-19T01:57:45.511Z,9.40
2023-02-19T01:57:57.332Z,9.40
2023-02-19T01:58:09.034Z,9.40
2023-02-19T01:58:20.828Z,9.40
2023-02-19T01:58:34.022Z,9.40
2023-02-19T01:58:45.751Z,9.40
2023-02-19T01:58:59.092Z,9.40
2023-02-19T01:59:10.790Z,9.40
2023-02-19T01:59:22.611Z,9.50
2023-02-19T01:59:34.406Z,9.40
2023-02-19T01:59:46.806Z,9.50
2023-02-19T02:00:01.879Z,9.40
2023-02-19T02:00:14.940Z,9.50
2023-02-19T02:00:26.853Z,9.50
2023-02-19T02:00:38.710Z,9.50
2023-02-19T02:00:51.767Z,9.40
2023-02-19T02:01:05.378Z,9.50
2023-02-19T02:01:17.134Z,9.50
2023-02-19T02:01:28.894Z,9.50
2023-02-19T02:01:40.696Z,9.50
2023-02-19T02:01:52.567Z,9.50
2023-02-19T02:02:04.369Z,9.50
2023-02-19T02:02:16.261Z,9.40
2023-02-19T02:02:28.572Z,9.50
2023-02-19T02:02:41.023Z,9.40
2023-02-19T02:02:53.133Z,9.50
2023-02-19T02:03:04.878Z,9.50
2023-02-19T02:03:17.183Z,9.40
2023-02-19T02:03:29.028Z,9.50
2023-02-19T02:03:40.959Z,9.50
2023-02-19T02:03:52.738Z,9.40
2023-02-19T02:04:06.033Z,9.40
2023-02-19T02:04:17.797Z,9.40
2023-02-19T02:04:31.015Z,9.50
2023-02-19T02:04:42.766Z,9.40
2023-02-19T02:04:57.791Z,9.50
2023-02-19T02:05:13.855Z,9.50
2023-02-19T02:05:53.334Z,9.50
2023-02-19T02:06:09.482Z,9.40
2023-02-19T02:06:26.040Z,9.50
2023-02-19T02:06:49.651Z,9.40
2023-02-19T02:07:02.514Z,9.40
2023-02-19T02:07:33.097Z,9.50
2023-02-19T02:08:03.054Z,9.40
2023-02-19T02:08:33.122Z,9.40
2023-02-19T02:09:03.475Z,9.40
2023-02-19T02:09:33.745Z,9.50
2023-02-19T02:10:04.034Z,9.40
2023-02-19T02:10:21.509Z,9.40
2023-02-19T02:10:33.842Z,9.40
2023-02-19T02:10:45.516Z,9.40
2023-02-19T02:10:57.503Z,9.40
2023-02-19T02:11:09.772Z,9.40
2023-02-19T02:11:21.655Z,9.40
2023-02-19T02:11:33.414Z,9.40
2023-02-19T02:11:51.945Z,9.40
2023-02-19T02:12:03.840Z,9.40
2023-02-19T02:12:15.615Z,9.40
2023-02-19T02:12:27.363Z,9.40
2023-02-19T02:12:39.137Z,9.40
2023-02-19T02:12:54.740Z,9.40
2023-02-19T02:13:06.583Z,9.40
2023-02-19T02:13:18.438Z,9.40
2023-02-19T02:13:30.471Z,9.40
2023-02-19T02:13:42.375Z,9.40
2023-02-19T02:13:54.172Z,9.40
2023-02-19T02:14:05.949Z,9.40
2023-02-19T02:14:18.810Z,9.40
2023-02-19T02:14:31.781Z,9.40
2023-02-19T02:14:45.082Z,9.40
2023-02-19T02:14:56.927Z,9.40
2023-02-19T02:15:09.039Z,9.40
2023-02-19T02:15:22.409Z,9.40
2023-02-19T02:15:43.825Z,9.40
2023-02-19T02:16:06.064Z,9.40
2023-02-19T02:16:24.422Z,9.40
2023-02-19T02:16:43.867Z,9.40
2023-02-19T02:17:04.973Z,9.40
2023-02-19T02:17:22.394Z,9.40
2023-02-19T02:18:05.989Z,9.40
2023-02-19T02:18:23.782Z,9.40
2023-02-19T02:19:04.425Z,9.40
2023-02-19T02:19:16.131Z,9.40
2023-02-19T02:19:46.277Z,9.40
2023-02-19T02:20:25.605Z,9.40
2023-02-19T02:20:57.035Z,9.40
2023-02-19T02:21:14.737Z,9.40
2023-02-19T02:21:29.099Z,9.40
2023-02-19T02:22:09.636Z,9.40
2023-02-19T02:22:42.648Z,9.40
2023-02-19T02:22:57.288Z,9.40
2023-02-19T02:23:15.528Z,9.40
2023-02-19T02:23:41.820Z,9.40
2023-02-19T02:24:05.438Z,9.50
2023-02-19T02:24:57.202Z,9.40
2023-02-19T02:25:40.552Z,9.50
2023-02-19T02:26:18.507Z,9.50
2023-02-19T02:26:52.540Z,9.50
2023-02-19T02:27:25.316Z,9.50
2023-02-19T02:27:52.434Z,9.50
2023-02-19T02:28:17.268Z,9.50
2023-02-19T02:28:36.167Z,9.50
2023-02-19T02:28:53.335Z,9.50
2023-02-19T02:29:23.096Z,9.50
2023-02-19T02:29:46.715Z,9.40
2023-02-19T02:30:13.545Z,9.40
2023-02-19T02:30:44.957Z,9.40
2023-02-19T02:30:58.418Z,9.40
2023-02-19T02:31:16.669Z,9.40
2023-02-19T02:31:44.444Z,9.40
2023-02-19T02:31:59.671Z,9.40
2023-02-19T02:32:13.018Z,9.40
2023-02-19T02:32:25.888Z,9.40
2023-02-19T02:32:42.605Z,9.30
2023-02-19T02:33:09.787Z,9.30
2023-02-19T02:33:25.155Z,9.30
2023-02-19T02:33:43.360Z,9.30
2023-02-19T02:34:06.687Z,9.30
2023-02-19T02:34:20.799Z,9.30
2023-02-19T02:34:40.786Z,9.30
2023-02-19T02:34:58.451Z,9.30
2023-02-19T02:35:11.346Z,9.30
2023-02-19T02:35:25.721Z,9.30
2023-02-19T02:35:54.436Z,9.30
2023-02-19T02:36:08.665Z,9.30
2023-02-19T02:36:22.740Z,9.30
2023-02-19T02:36:38.316Z,9.30
2023-02-19T02:36:51.770Z,9.30
2023-02-19T02:37:03.531Z,9.30
2023-02-19T02:37:15.730Z,9.30
2023-02-19T02:37:28.539Z,9.30
2023-02-19T02:37:41.256Z,9.30
2023-02-19T02:37:54.165Z,9.30
2023-02-19T02:38:07.780Z,9.30
2023-02-19T02:38:21.693Z,9.30
2023-02-19T02:38:37.860Z,9.30
2023-02-19T02:38:49.595Z,9.30
2023-02-19T02:39:01.730Z,9.30
2023-02-19T02:39:15.224Z,9.30
2023-02-19T02:39:27.255Z,9.30
2023-02-19T02:39:39.188Z,9.30
2023-02-19T02:39:50.972Z,9.30
2023-02-19T02:40:03.507Z,9.30
2023-02-19T02:40:15.284Z,9.30
2023-02-19T02:40:27.099Z,9.30
2023-02-19T02:40:39.865Z,9.30
2023-02-19T02:40:51.802Z,9.30
2023-02-19T02:41:03.576Z,9.30
2023-02-19T02:41:15.288Z,9.30
2023-02-19T02:41:27.867Z,9.30
2023-02-19T02:42:17.097Z,9.30
2023-02-19T02:42:28.927Z,9.30
2023-02-19T02:42:40.693Z,9.30
2023-02-19T02:42:52.466Z,9.30
2023-02-19T02:43:04.243Z,9.30
2023-02-19T02:43:16.066Z,9.30
2023-02-19T02:43:27.927Z,9.30
2023-02-19T02:43:39.676Z,9.30
2023-02-19T02:43:51.374Z,9.30
2023-02-19T02:44:03.047Z,9.30
2023-02-19T02:44:14.750Z,9.40
2023-02-19T02:44:34.791Z,9.40
2023-02-19T02:45:05.387Z,9.30
2023-02-19T02:45:35.199Z,9.30
2023-02-19T02:45:47.039Z,9.30
2023-02-19T02:45:58.959Z,9.30
2023-02-19T02:46:11.820Z,9.30
2023-02-19T02:46:30.266Z,9.30
2023-02-19T02:46:42.484Z,9.30
2023-02-19T02:46:54.531Z,9.30
2023-02-19T02:47:06.616Z,9.30
2023-02-19T02:47:37.200Z,9.30
2023-02-19T02:47:53.582Z,9.30
2023-02-19T02:48:26.720Z,9.40
2023-02-19T02:48:57.755Z,9.40
2023-02-19T02:49:14.497Z,9.40
2023-02-19T02:49:26.220Z,9.40
2023-02-19T02:49:57.893Z,9.40
2023-02-19T02:50:10.521Z,9.50
2023-02-19T02:50:24.979Z,9.50
2023-02-19T02:50:47.200Z,9.50
2023-02-19T02:51:18.172Z,9.50
2023-02-19T02:51:32.436Z,9.50
2023-02-19T02:51:46.532Z,9.50
2023-02-19T02:51:58.206Z,9.50
2023-02-19T02:52:29.898Z,9.50
2023-02-19T02:53:00.523Z,9.40
2023-02-19T02:53:34.874Z,9.50
2023-02-19T02:54:14.405Z,9.50
2023-02-19T02:54:46.571Z,9.50
2023-02-19T02:55:04.341Z,9.40
2023-02-19T02:55:16.139Z,9.40
2023-02-19T02:55:29.457Z,9.40
2023-02-19T02:55:44.472Z,9.40
2023-02-19T02:55:56.471Z,9.40
2023-02-19T02:56:08.354Z,9.40
2023-02-19T02:56:20.207Z,9.40
2023-02-19T02:56:32.070Z,9.40
2023-02-19T02:56:44.215Z,9.40
2023-02-19T02:56:56.164Z,9.40
2023-02-19T02:57:09.329Z,9.40
2023-02-19T02:57:21.062Z,9.40
2023-02-19T02:57:32.734Z,9.40
2023-02-19T02:57:44.487Z,9.40
2023-02-19T02:57:56.252Z,9.40
2023-02-19T02:58:08.212Z,9.40
2023-02-19T02:58:20.621Z,9.40
2023-02-19T02:58:32.635Z,9.40
2023-02-19T02:58:44.534Z,9.40
2023-02-19T02:58:56.687Z,9.40
2023-02-19T02:59:10.060Z,9.40
2023-02-19T02:59:24.028Z,9.40
2023-02-19T02:59:37.538Z,9.40
2023-02-19T02:59:49.360Z,9.40
2023-02-19T03:00:01.319Z,9.40
2023-02-19T03:00:14.527Z,9.40
2023-02-19T03:00:46.367Z,9.50
2023-02-19T03:01:20.207Z,9.50
2023-02-19T03:02:10.841Z,9.50
2023-02-19T03:02:24.101Z,9.50
2023-02-19T03:02:35.810Z,9.50
2023-02-19T03:02:47.560Z,9.50
2023-02-19T03:02:59.289Z,9.50
2023-02-19T03:03:11.040Z,9.50
2023-02-19T03:03:23.320Z,9.40
2023-02-19T03:03:35.052Z,9.50
2023-02-19T03:03:48.305Z,9.50
2023-02-19T03:04:03.404Z,9.50
2023-02-19T03:04:24.276Z,9.50
2023-02-19T03:05:17.219Z,9.50
2023-02-19T03:05:47.657Z,9.50
2023-02-19T03:06:03.208Z,9.50
2023-02-19T03:06:16.334Z,9.50
2023-02-19T03:06:29.811Z,9.50
2023-02-19T03:06:41.479Z,9.50
2023-02-19T03:06:53.178Z,9.50
2023-02-19T03:07:07.026Z,9.50
2023-02-19T03:07:18.980Z,9.50
2023-02-19T03:07:36.952Z,9.50
2023-02-19T03:07:56.049Z,9.50